createdAt,value
2018-06-08T00:01:53.979Z,77.40
2018-06-08T00:05:12.251Z,77.10
2018-06-08T00:08:30.514Z,77.10
2018-06-08T00:11:48.776Z,77.60
2018-06-08T00:15:07.030Z,78.20
2018-06-08T00:18:25.303Z,78.70
2018-06-08T00:21:43.567Z,78.50
2018-06-08T00:25:01.846Z,78.30
2018-06-08T00:28:20.141Z,78.10
2018-06-08T00:31:38.386Z,78.50
2018-06-08T00:34:56.662Z,78.70
2018-06-08T00:38:14.936Z,79.30
2018-06-08T00:41:33.183Z,80.60
2018-06-08T00:44:51.448Z,80.80
2018-06-08T00:48:09.703Z,80.10
2018-06-08T00:51:27.947Z,80.50
2018-06-08T00:54:46.208Z,80.50
2018-06-08T00:58:04.470Z,80.60
2018-06-08T01:01:22.716Z,80.70
2018-06-08T01:04:40.979Z,80.70
2018-06-08T01:07:59.249Z,81.20
2018-06-08T01:11:17.499Z,81.10
2018-06-08T01:14:35.772Z,81.40
2018-06-08T01:17:54.031Z,81.60
2018-06-08T01:21:12.279Z,81.90
2018-06-08T01:24:30.588Z,81.70
2018-06-08T01:27:48.854Z,82.10
2018-06-08T01:31:07.123Z,82.10
2018-06-08T01:34:25.378Z,82.00
2018-06-08T01:37:43.648Z,82.20
2018-06-08T01:41:01.904Z,83.10
2018-06-08T01:44:20.273Z,83.80
2018-06-08T01:47:38.508Z,84.30
2018-06-08T01:50:56.787Z,84.40
2018-06-08T01:54:15.076Z,84.60
2018-06-08T01:57:33.328Z,84.40
2018-06-08T02:00:51.616Z,84.80
2018-06-08T02:04:09.876Z,84.70
2018-06-08T02:07:28.136Z,85.00
2018-06-08T02:10:46.413Z,85.30
2018-06-08T02:14:04.687Z,85.80
2018-06-08T02:17:22.938Z,85.80
2018-06-08T02:20:41.791Z,85.60
2018-06-08T02:24:00.073Z,85.40
2018-06-08T02:27:18.327Z,85.60
2018-06-08T02:30:36.600Z,86.10
2018-06-08T02:33:54.892Z,86.50
2018-06-08T02:37:13.130Z,86.20
2018-06-08T02:40:31.387Z,87.00
2018-06-08T02:43:49.698Z,87.90
2018-06-08T02:47:07.947Z,88.30
2018-06-08T02:50:26.311Z,88.30
2018-06-08T02:53:44.668Z,88.60
2018-06-08T02:57:02.940Z,89.20
2018-06-08T03:00:21.296Z,89.10
2018-06-08T03:03:39.539Z,89.50
2018-06-08T03:06:57.805Z,89.70
2018-06-08T03:10:16.072Z,89.80
2018-06-08T03:13:34.918Z,90.10
2018-06-08T03:16:53.264Z,90.00
2018-06-08T03:20:11.523Z,89.80
2018-06-08T03:23:29.803Z,89.80
2018-06-08T03:30:06.106Z,90.40
2018-06-08T03:33:24.358Z,90.20
2018-06-08T03:40:00.680Z,90.50
2018-06-08T03:43:18.922Z,90.80
2018-06-08T03:46:37.192Z,91.00
2018-06-08T03:49:55.481Z,91.50
2018-06-08T03:53:13.792Z,91.90
2018-06-08T03:56:32.075Z,92.30
2018-06-08T03:59:50.360Z,92.50
2018-06-08T04:03:08.633Z,92.40
2018-06-08T04:06:26.891Z,92.10
2018-06-08T04:09:45.152Z,92.10
2018-06-08T04:13:03.456Z,91.90
2018-06-08T04:16:21.727Z,91.70
2018-06-08T04:19:40.085Z,91.60
2018-06-08T04:22:58.353Z,91.70
2018-06-08T04:26:16.688Z,91.60
2018-06-08T04:29:34.944Z,91.30
2018-06-08T04:32:53.266Z,91.10
2018-06-08T04:36:11.545Z,91.30
2018-06-08T04:39:29.823Z,91.30
2018-06-08T04:46:06.116Z,91.00
2018-06-08T04:49:24.370Z,90.30
2018-06-08T04:52:42.632Z,90.30
2018-06-08T04:56:00.902Z,90.70
2018-06-08T04:59:19.148Z,90.50
2018-06-08T05:02:37.419Z,90.30
2018-06-08T05:05:55.699Z,89.50
2018-06-08T05:09:13.952Z,88.90
2018-06-08T05:12:32.211Z,88.40
2018-06-08T05:15:50.484Z,88.90
2018-06-08T05:19:08.748Z,89.30
2018-06-08T05:22:27.024Z,89.70
2018-06-08T05:25:45.292Z,88.80
2018-06-08T05:29:03.624Z,86.80
2018-06-08T05:32:21.908Z,86.00
2018-06-08T05:35:40.188Z,85.50
2018-06-08T05:38:58.455Z,84.00
2018-06-08T05:42:16.731Z,82.30
2018-06-08T05:48:52.990Z,82.70
2018-06-08T05:52:11.258Z,85.20
2018-06-08T05:55:29.521Z,84.80
2018-06-08T06:02:06.450Z,81.70
2018-06-08T06:05:24.764Z,79.70
2018-06-08T06:08:43.040Z,77.30
2018-06-08T06:12:01.337Z,76.90
2018-06-08T06:15:19.599Z,75.40
2018-06-08T06:18:37.881Z,73.60
2018-06-08T06:21:56.155Z,73.40
2018-06-08T06:25:14.442Z,77.70
2018-06-08T06:28:32.712Z,74.80
2018-06-08T06:31:50.977Z,75.00
2018-06-08T06:35:09.249Z,73.20
2018-06-08T06:38:27.515Z,74.00
2018-06-08T06:41:45.785Z,74.20
2018-06-08T06:45:04.543Z,73.50
2018-06-08T06:48:22.967Z,78.10
2018-06-08T06:51:41.217Z,72.50
2018-06-08T06:54:59.501Z,72.80
2018-06-08T06:58:17.795Z,74.00
2018-06-08T07:01:36.047Z,73.10
2018-06-08T07:04:54.961Z,67.10
2018-06-08T07:08:13.273Z,65.30
2018-06-08T07:11:31.549Z,65.80
2018-06-08T07:14:49.812Z,65.40
2018-06-08T07:18:08.100Z,70.70
2018-06-08T07:21:26.405Z,66.00
2018-06-08T07:24:44.749Z,65.50
2018-06-08T07:28:02.976Z,63.20
2018-06-08T07:31:21.255Z,63.70
2018-06-08T07:34:39.528Z,60.70
2018-06-08T07:41:16.305Z,59.80
2018-06-08T07:44:34.589Z,59.80
2018-06-08T07:47:52.879Z,58.00
2018-06-08T07:51:11.148Z,55.90
2018-06-08T07:54:29.416Z,59.30
2018-06-08T07:57:47.732Z,59.00
2018-06-08T08:01:06.067Z,56.60
2018-06-08T08:04:24.326Z,54.60
2018-06-08T08:07:42.596Z,53.80
2018-06-08T08:11:00.864Z,53.60
2018-06-08T08:14:19.129Z,53.40
2018-06-08T08:17:37.398Z,56.70
2018-06-08T08:20:55.674Z,58.40
2018-06-08T08:24:14.008Z,59.10
2018-06-08T08:27:32.272Z,57.10
2018-06-08T08:30:50.569Z,54.80
2018-06-08T08:34:08.847Z,54.40
2018-06-08T08:37:27.102Z,53.60
2018-06-08T08:40:45.368Z,50.50
2018-06-08T08:44:04.197Z,52.10
2018-06-08T08:47:22.443Z,54.70
2018-06-08T08:50:40.742Z,53.00
2018-06-08T08:53:59.028Z,53.60
2018-06-08T08:57:17.287Z,52.30
2018-06-08T09:00:35.578Z,52.90
2018-06-08T09:03:53.862Z,53.20
2018-06-08T09:10:30.159Z,53.10
2018-06-08T09:17:06.460Z,51.70
2018-06-08T09:20:24.728Z,50.20
2018-06-08T09:23:43.009Z,51.40
2018-06-08T09:27:01.297Z,52.10
2018-06-08T09:30:19.560Z,53.30
2018-06-08T09:33:37.836Z,53.80
2018-06-08T09:36:56.104Z,57.20
2018-06-08T09:40:14.360Z,57.70
2018-06-08T09:43:32.625Z,57.40
2018-06-08T09:46:50.904Z,55.60
2018-06-08T09:50:09.697Z,56.00
2018-06-08T09:53:27.963Z,54.90
2018-06-08T09:56:46.233Z,54.00
2018-06-08T10:00:04.571Z,54.50
2018-06-08T10:03:22.863Z,51.30
2018-06-08T10:06:41.146Z,50.70
2018-06-08T10:09:59.428Z,48.60
2018-06-08T10:13:17.709Z,51.80
2018-06-08T10:16:36.015Z,51.40
2018-06-08T10:19:54.272Z,52.50
2018-06-08T10:23:12.549Z,54.60
2018-06-08T10:26:31.647Z,52.50
2018-06-08T10:29:49.959Z,50.60
2018-06-08T10:33:08.231Z,49.80
2018-06-08T10:36:26.494Z,45.60
2018-06-08T10:39:44.769Z,43.80
2018-06-08T10:43:03.063Z,43.60
2018-06-08T10:46:21.339Z,44.50
2018-06-08T10:49:39.612Z,42.90
2018-06-08T10:52:57.896Z,42.40
2018-06-08T10:56:16.285Z,39.50
2018-06-08T10:59:34.536Z,42.60
2018-06-08T11:02:52.795Z,45.50
2018-06-08T11:06:11.096Z,45.20
2018-06-08T11:09:29.367Z,44.90
2018-06-08T11:12:47.675Z,43.20
2018-06-08T11:16:05.994Z,44.30
2018-06-08T11:19:24.280Z,43.80
2018-06-08T11:26:00.556Z,45.00
2018-06-08T11:29:18.841Z,45.30
2018-06-08T11:32:37.163Z,42.30
2018-06-08T11:35:55.418Z,41.90
2018-06-08T11:39:13.709Z,42.60
2018-06-08T11:42:31.956Z,39.80
2018-06-08T11:45:50.278Z,43.10
2018-06-08T11:49:08.525Z,40.40
2018-06-08T11:52:26.797Z,38.50
2018-06-08T11:55:45.045Z,37.00
2018-06-08T11:59:03.338Z,36.40
2018-06-08T12:02:21.611Z,36.00
2018-06-08T12:05:39.881Z,34.60
2018-06-08T12:08:58.145Z,31.70
2018-06-08T12:12:16.399Z,34.50
2018-06-08T12:15:34.652Z,36.90
2018-06-08T12:18:52.928Z,38.80
2018-06-08T12:22:11.202Z,38.00
2018-06-08T12:25:29.446Z,36.20
2018-06-08T12:28:47.714Z,37.40
2018-06-08T12:32:06.054Z,36.40
2018-06-08T12:38:42.336Z,38.90
2018-06-08T12:42:00.600Z,39.80
2018-06-08T12:45:18.920Z,40.00
2018-06-08T12:48:37.204Z,40.10
2018-06-08T12:51:55.452Z,38.60
2018-06-08T12:55:13.727Z,39.00
2018-06-08T12:58:32.211Z,43.00
2018-06-08T13:01:50.490Z,41.80
2018-06-08T13:05:08.772Z,41.10
2018-06-08T13:08:27.048Z,41.80
2018-06-08T13:11:45.328Z,42.30
2018-06-08T13:15:03.629Z,42.50
2018-06-08T13:18:21.888Z,40.60
2018-06-08T13:21:40.153Z,41.50
2018-06-08T13:24:58.460Z,40.80
2018-06-08T13:28:16.716Z,40.10
2018-06-08T13:31:34.987Z,40.40
2018-06-08T13:34:53.248Z,41.80
2018-06-08T13:38:11.516Z,39.70
2018-06-08T13:44:48.027Z,41.30
2018-06-08T13:48:07.772Z,38.80
2018-06-08T13:51:26.028Z,40.30
2018-06-08T13:54:44.292Z,37.70
2018-06-08T14:01:21.137Z,39.80
2018-06-08T14:04:39.417Z,40.10
2018-06-08T14:07:57.699Z,38.60
2018-06-08T14:14:35.831Z,40.40
2018-06-08T14:17:54.501Z,40.00
2018-06-08T14:21:12.918Z,38.20
2018-06-08T14:24:31.538Z,38.50
2018-06-08T14:27:49.910Z,39.50
2018-06-08T14:31:08.355Z,39.70
2018-06-08T14:34:26.633Z,40.20
2018-06-08T14:37:44.901Z,38.70
2018-06-08T14:47:39.207Z,38.20
2018-06-08T14:50:57.502Z,38.70
2018-06-08T14:54:15.771Z,38.80
2018-06-08T14:57:34.401Z,39.60
2018-06-08T15:00:53.236Z,39.60
2018-06-08T15:04:11.767Z,39.90
2018-06-08T15:07:30.112Z,40.20
2018-06-08T15:10:48.394Z,41.00
2018-06-08T15:14:06.682Z,40.90
2018-06-08T15:17:25.588Z,41.20
2018-06-08T15:20:44.363Z,40.10
2018-06-08T15:24:02.816Z,40.50
2018-06-08T15:27:21.165Z,40.50
2018-06-08T15:30:39.438Z,42.30
2018-06-08T15:37:16.662Z,40.70
2018-06-08T15:40:35.182Z,43.90
2018-06-08T15:43:53.780Z,45.10
2018-06-08T15:47:12.149Z,46.90
2018-06-08T15:50:30.980Z,46.80
2018-06-08T15:53:50.899Z,48.50
2018-06-08T15:57:09.196Z,49.60
2018-06-08T16:00:27.485Z,48.60
2018-06-08T16:03:45.793Z,49.20
2018-06-08T16:07:04.110Z,50.30
2018-06-08T16:10:22.395Z,51.20
2018-06-08T16:16:58.782Z,50.20
2018-06-08T16:20:17.543Z,50.50
2018-06-08T16:23:35.828Z,50.60
2018-06-08T16:26:54.138Z,51.90
2018-06-08T16:30:12.942Z,51.70
2018-06-08T16:33:31.234Z,52.00
2018-06-08T16:36:49.517Z,50.50
2018-06-08T16:40:07.808Z,50.30
2018-06-08T16:43:26.080Z,50.70
2018-06-08T16:46:44.353Z,50.30
2018-06-08T16:53:20.640Z,52.20
2018-06-08T16:56:38.903Z,51.80
2018-06-08T16:59:57.196Z,52.60
2018-06-08T17:03:15.442Z,52.00
2018-06-08T17:06:33.737Z,51.90
2018-06-08T17:13:12.438Z,52.50
2018-06-08T17:16:33.574Z,52.70
2018-06-08T17:19:51.919Z,52.10
2018-06-08T17:23:10.215Z,51.90
2018-06-08T17:26:28.504Z,52.10
2018-06-08T17:29:46.817Z,52.80
2018-06-08T17:33:05.087Z,53.10
2018-06-08T17:36:23.344Z,51.10
2018-06-08T17:39:41.623Z,51.90
2018-06-08T17:42:59.887Z,52.30
2018-06-08T17:46:18.216Z,53.90
2018-06-08T17:49:36.478Z,52.70
2018-06-08T17:52:54.767Z,55.60
2018-06-08T17:56:13.013Z,53.50
2018-06-08T17:59:31.298Z,53.80
2018-06-08T18:02:49.928Z,54.20
2018-06-08T18:06:08.214Z,54.60
2018-06-08T18:09:26.513Z,55.80
2018-06-08T18:16:02.812Z,55.20
2018-06-08T18:19:21.121Z,55.10
2018-06-08T18:22:39.379Z,55.30
2018-06-08T18:25:57.636Z,55.90
2018-06-08T18:32:33.905Z,57.10
2018-06-08T18:35:52.197Z,58.00
2018-06-08T18:39:10.492Z,59.00
2018-06-08T18:42:28.765Z,58.90
2018-06-08T18:45:47.009Z,59.30
2018-06-08T18:49:05.319Z,59.70
2018-06-08T18:52:23.606Z,59.70
2018-06-08T18:55:41.910Z,60.00
2018-06-08T18:59:00.176Z,60.30
2018-06-08T19:02:18.455Z,59.80
2018-06-08T19:05:36.723Z,60.00
2018-06-08T19:08:54.985Z,59.90
2018-06-08T19:12:13.272Z,60.00
2018-06-08T19:15:31.531Z,60.60
2018-06-08T19:18:49.837Z,60.50
2018-06-08T19:22:08.081Z,60.80
2018-06-08T19:25:26.360Z,61.50
2018-06-08T19:28:44.640Z,62.10
2018-06-08T19:32:03.310Z,62.70
2018-06-08T19:35:21.667Z,62.80
2018-06-08T19:41:58.428Z,63.40
2018-06-08T19:48:35.852Z,63.70
2018-06-08T19:51:54.589Z,64.70
2018-06-08T19:55:13.400Z,66.10
2018-06-08T19:58:32.674Z,63.40
2018-06-08T20:01:50.904Z,61.40
2018-06-08T20:05:09.188Z,60.40
2018-06-08T20:08:27.479Z,60.60
2018-06-08T20:11:45.752Z,59.10
2018-06-08T20:15:04.744Z,59.00
2018-06-08T20:21:41.123Z,60.20
2018-06-08T20:24:59.439Z,60.70
2018-06-08T20:28:17.712Z,61.10
2018-06-08T20:31:36.048Z,61.50
2018-06-08T20:34:54.304Z,61.40
2018-06-08T20:38:12.577Z,62.30
2018-06-08T20:41:30.844Z,63.60
2018-06-08T20:44:49.138Z,63.60
2018-06-08T20:48:07.866Z,66.80
2018-06-08T20:51:26.159Z,67.40
2018-06-08T20:54:44.407Z,71.10
2018-06-08T20:58:02.762Z,70.40
2018-06-08T21:01:21.052Z,71.60
2018-06-08T21:04:39.453Z,74.20
2018-06-08T21:07:57.715Z,74.50
2018-06-08T21:11:15.993Z,74.60
2018-06-08T21:14:34.257Z,75.00
2018-06-08T21:17:52.575Z,75.90
2018-06-08T21:21:11.151Z,80.60
2018-06-08T21:24:29.434Z,80.50
2018-06-08T21:27:47.749Z,78.90
2018-06-08T21:31:06.195Z,82.90
2018-06-08T21:34:24.505Z,82.00
2018-06-08T21:37:42.773Z,85.10
2018-06-08T21:41:01.041Z,87.50
2018-06-08T21:44:19.317Z,85.20
2018-06-08T21:47:37.796Z,85.80
2018-06-08T21:50:56.158Z,86.10
2018-06-08T21:54:14.470Z,86.00
2018-06-08T21:57:32.816Z,87.80
2018-06-08T22:00:51.084Z,87.40
2018-06-08T22:04:09.359Z,86.80
2018-06-08T22:07:27.772Z,86.60
2018-06-08T22:10:46.108Z,86.20
2018-06-08T22:14:04.553Z,87.40
2018-06-08T22:17:23.906Z,88.20
